Archival Weather

Alykel

Alykel, Russia (UOOO)

Report from: Tuesday, November 21, 2023 10:00 PM UTC
Current time: Friday, July 19, 2024 3:23 AM UTC

Current weather – Weather history – Daily summaries
Weather forecast

Present weatherLight snow, drifting snow
Temperature-27.0°C (-16.6°F)
Wind chill-39.7°C (-39.5°F)
Dew point-30.0°C (-22.0°F)
Winds 11.7 kts (6 m/s, 13.4 mph) South (180°)
Visibility6.2 mi. (10 km)
Clouds Ceiling: Broken clouds 4,300 ft. (1,311 m)
Altimeter30.39 in.Hg (1029 mB)
Precip. events QF 9:35 AM
Relative humidity75 %
Density altitude-6,006 ft. (-1,831 m)
Remarks No significant changes expected in the next two hours
Flight conditions Visual Meteorological Conditions
Raw dataUOOO 212200Z 18006MPS 9999 -SN DRSN BKN043 M27/M30 Q1029 R19/35//60 NOSIG RMK QFE755/1007
An error has occurred. This application may no longer respond until reloaded. Reload 🗙